Time;durP1;ratioP1;P1;durP2;ratioP2;P2;SDS_P1;SDS_P2;PMS_P1;PMS_P2;Temp;Humidity;BMP_temperature;BMP_pressure;BME280_temperature;BME280_humidity;BME280_pressure;Samples;Min_cycle;Max_cycle;Signal;HPM_P1;HPM_P2
2023/05/21 00:00:12;;;;;;;4.88;4.00;;;;;;;;;;4947100;28;20390;-87
2023/05/21 00:02:39;;;;;;;5.10;4.70;;;;;;;;;;4950697;29;20119;-87
2023/05/21 00:05:12;;;;;;;4.63;4.22;;;;;;;;;;4952642;28;20083;-87
2023/05/21 00:07:41;;;;;;;4.95;4.55;;;;;;;;;;4953632;28;20058;-86
2023/05/21 00:10:08;;;;;;;4.43;3.92;;;;;;;;;;4950348;28;20081;-87
2023/05/21 00:12:36;;;;;;;4.75;4.35;;;;;;;;;;4951556;28;20047;-87
2023/05/21 00:15:04;;;;;;;5.65;5.25;;;;;;;;;;4950880;28;20115;-88
2023/05/21 00:17:32;;;;;;;5.68;5.18;;;;;;;;;;4951001;28;20058;-87
2023/05/21 00:20:01;;;;;;;4.80;4.40;;;;;;;;;;4951512;28;20067;-87
2023/05/21 00:22:28;;;;;;;5.70;4.95;;;;;;;;;;4933973;29;20516;-86
2023/05/21 00:24:56;;;;;;;5.05;4.65;;;;;;;;;;4951297;29;20066;-86
2023/05/21 00:27:23;;;;;;;5.45;5.05;;;;;;;;;;4949900;28;20058;-84
2023/05/21 00:29:51;;;;;;;5.32;4.88;;;;;;;;;;4951274;28;20063;-86
2023/05/21 00:32:18;;;;;;;5.10;4.70;;;;;;;;;;4951741;29;20058;-87
2023/05/21 00:34:46;;;;;;;4.65;4.25;;;;;;;;;;4951241;29;20051;-88
2023/05/21 00:37:14;;;;;;;5.35;4.95;;;;;;;;;;4935217;29;20059;-88
2023/05/21 00:39:42;;;;;;;4.95;4.55;;;;;;;;;;4954344;28;20140;-86
2023/05/21 00:42:09;;;;;;;4.82;4.53;;;;;;;;;;4943144;28;20066;-88
2023/05/21 00:44:40;;;;;;;5.05;4.60;;;;;;;;;;4934794;29;20085;-88
2023/05/21 00:47:07;;;;;;;7.30;5.03;;;;;;;;;;4933048;28;20043;-88
2023/05/21 00:49:36;;;;;;;5.20;4.80;;;;;;;;;;4932416;28;20074;-86
2023/05/21 00:52:04;;;;;;;5.68;5.28;;;;;;;;;;4931292;29;20057;-87
2023/05/21 00:54:31;;;;;;;4.95;4.63;;;;;;;;;;4951285;29;20062;-86
2023/05/21 00:57:00;;;;;;;5.13;4.72;;;;;;;;;;4933237;29;20061;-86
2023/05/21 00:59:27;;;;;;;4.88;4.55;;;;;;;;;;4930837;29;20417;-86
2023/05/21 01:01:55;;;;;;;4.50;4.20;;;;;;;;;;4942502;28;20048;-85
2023/05/21 01:04:23;;;;;;;5.28;4.88;;;;;;;;;;4935219;29;20129;-87
2023/05/21 01:06:52;;;;;;;4.90;4.53;;;;;;;;;;4932986;28;20069;-88
2023/05/21 01:09:20;;;;;;;5.47;4.85;;;;;;;;;;4949896;28;20059;-87
2023/05/21 01:11:51;;;;;;;4.95;4.55;;;;;;;;;;4949504;28;20505;-88
2023/05/21 01:14:19;;;;;;;5.32;4.85;;;;;;;;;;4951020;28;20035;-87
2023/05/21 01:16:51;;;;;;;5.38;4.88;;;;;;;;;;4935597;29;20059;-87
2023/05/21 01:19:22;;;;;;;5.40;4.90;;;;;;;;;;4947918;28;20051;-86
2023/05/21 01:21:51;;;;;;;4.90;4.50;;;;;;;;;;4953512;29;20057;-87
2023/05/21 01:24:19;;;;;;;5.50;4.95;;;;;;;;;;4955719;28;20741;-87
2023/05/21 01:26:47;;;;;;;4.45;4.15;;;;;;;;;;4961063;29;20135;-85
2023/05/21 01:29:15;;;;;;;4.40;4.10;;;;;;;;;;4961614;28;20044;-85
2023/05/21 01:31:52;;;;;;;4.80;4.40;;;;;;;;;;4955082;29;20047;-86
2023/05/21 01:34:21;;;;;;;4.30;4.00;;;;;;;;;;4972925;28;20059;-84
2023/05/21 01:36:54;;;;;;;4.82;4.35;;;;;;;;;;4972549;28;20047;-85
2023/05/21 01:39:33;;;;;;;5.05;4.65;;;;;;;;;;4972242;28;20063;-85
2023/05/21 01:42:03;;;;;;;4.43;4.13;;;;;;;;;;4971013;28;20588;-85
2023/05/21 01:44:31;;;;;;;4.30;4.00;;;;;;;;;;4947164;29;20055;-85
2023/05/21 01:46:59;;;;;;;4.85;4.45;;;;;;;;;;4953311;28;20063;-84
2023/05/21 01:49:26;;;;;;;5.20;4.80;;;;;;;;;;4937498;29;20126;-85
2023/05/21 01:51:53;;;;;;;5.00;4.60;;;;;;;;;;4950579;28;20051;-85
2023/05/21 01:54:22;;;;;;;5.30;4.80;;;;;;;;;;4961174;29;20051;-86
2023/05/21 01:56:52;;;;;;;5.53;5.07;;;;;;;;;;4960390;29;20051;-85
2023/05/21 01:59:20;;;;;;;5.60;5.20;;;;;;;;;;4934086;29;20425;-86
2023/05/21 02:01:47;;;;;;;5.32;4.93;;;;;;;;;;4931831;29;20059;-86
2023/05/21 02:04:15;;;;;;;4.65;4.20;;;;;;;;;;4948422;28;20126;-85
2023/05/21 02:06:43;;;;;;;5.65;5.15;;;;;;;;;;4946944;29;20051;-86
2023/05/21 02:09:10;;;;;;;5.47;5.07;;;;;;;;;;4937487;29;20051;-87
2023/05/21 02:11:38;;;;;;;6.03;5.50;;;;;;;;;;4948489;29;20107;-85
2023/05/21 02:14:06;;;;;;;5.78;5.28;;;;;;;;;;4950210;29;20043;-85
2023/05/21 02:16:34;;;;;;;5.60;5.20;;;;;;;;;;4954665;28;20047;-87
2023/05/21 02:19:03;;;;;;;5.57;5.18;;;;;;;;;;4940100;29;20055;-84
2023/05/21 02:21:30;;;;;;;5.50;4.97;;;;;;;;;;4936981;28;20054;-86
2023/05/21 02:23:58;;;;;;;5.70;5.20;;;;;;;;;;4934205;29;20421;-86
2023/05/21 02:26:26;;;;;;;5.65;4.80;;;;;;;;;;4933952;29;20059;-84
2023/05/21 02:28:54;;;;;;;6.07;5.57;;;;;;;;;;4949689;28;20059;-85
2023/05/21 02:31:21;;;;;;;6.35;5.18;;;;;;;;;;4942459;28;20051;-85
2023/05/21 02:33:48;;;;;;;5.90;5.38;;;;;;;;;;4949527;29;20055;-86
2023/05/21 02:36:17;;;;;;;6.00;5.57;;;;;;;;;;4948911;29;20134;-84
2023/05/21 02:38:45;;;;;;;5.63;5.13;;;;;;;;;;4947511;28;20502;-86
2023/05/21 02:41:12;;;;;;;6.07;5.50;;;;;;;;;;4943564;28;20137;-85
2023/05/21 02:43:40;;;;;;;7.82;6.03;;;;;;;;;;4946607;28;20063;-84
2023/05/21 02:46:07;;;;;;;7.68;5.72;;;;;;;;;;4932114;29;20051;-85
2023/05/21 02:48:35;;;;;;;5.68;5.28;;;;;;;;;;4932141;28;20047;-85
2023/05/21 02:51:04;;;;;;;5.85;5.35;;;;;;;;;;4934520;29;20492;-86
2023/05/21 02:53:31;;;;;;;5.60;5.18;;;;;;;;;;4951119;29;20091;-86
2023/05/21 02:55:58;;;;;;;5.25;4.82;;;;;;;;;;4949364;28;20130;-85
2023/05/21 02:58:26;;;;;;;5.85;5.30;;;;;;;;;;4938181;29;20039;-87
2023/05/21 03:00:54;;;;;;;7.03;6.43;;;;;;;;;;4935872;29;20099;-86
2023/05/21 03:03:21;;;;;;;6.30;5.80;;;;;;;;;;4928158;29;20102;-85
2023/05/21 03:05:49;;;;;;;6.00;5.50;;;;;;;;;;4935142;29;20517;-85
2023/05/21 03:08:18;;;;;;;6.20;5.70;;;;;;;;;;4934812;29;20051;-85
2023/05/21 03:10:45;;;;;;;6.10;5.50;;;;;;;;;;4951115;28;20047;-85
2023/05/21 03:13:13;;;;;;;5.50;5.10;;;;;;;;;;4945551;28;20498;-87
2023/05/21 03:15:40;;;;;;;7.03;6.20;;;;;;;;;;4938471;29;20047;-85
2023/05/21 03:18:08;;;;;;;6.13;5.63;;;;;;;;;;4938827;29;20135;-87
2023/05/21 03:20:42;;;;;;;6.00;5.50;;;;;;;;;;4949822;28;20051;-86
2023/05/21 03:23:12;;;;;;;6.60;5.90;;;;;;;;;;4934465;28;20441;-87
2023/05/21 03:25:44;;;;;;;6.10;5.60;;;;;;;;;;4935579;29;20078;-86
2023/05/21 03:28:12;;;;;;;6.10;5.60;;;;;;;;;;4914255;29;20170;-86
2023/05/21 03:30:45;;;;;;;6.22;5.65;;;;;;;;;;4920324;29;20416;-87
2023/05/21 03:33:39;;;;;;;5.68;5.28;;;;;;;;;;4943067;28;20136;-85
2023/05/21 03:36:32;;;;;;;5.80;5.30;;;;;;;;;;4950105;28;20047;-88
2023/05/21 03:38:59;;;;;;;6.00;5.50;;;;;;;;;;4956655;28;20051;-88
2023/05/21 03:41:27;;;;;;;6.00;5.50;;;;;;;;;;4951401;28;20489;-88
2023/05/21 03:44:00;;;;;;;6.40;5.80;;;;;;;;;;4949240;29;20135;-88
2023/05/21 03:46:34;;;;;;;7.97;5.95;;;;;;;;;;4936475;28;20806;-88
2023/05/21 03:49:25;;;;;;;6.15;5.57;;;;;;;;;;4946664;28;20079;-88
2023/05/21 03:51:55;;;;;;;5.65;5.18;;;;;;;;;;4935488;29;20130;-87
2023/05/21 03:54:24;;;;;;;6.40;5.90;;;;;;;;;;4946329;28;20473;-86
2023/05/21 03:56:55;;;;;;;6.70;6.10;;;;;;;;;;4936130;29;20058;-86
2023/05/21 03:59:25;;;;;;;7.00;6.40;;;;;;;;;;4945271;28;20049;-86
2023/05/21 04:01:52;;;;;;;6.40;5.82;;;;;;;;;;4934188;29;20048;-86
2023/05/21 04:04:20;;;;;;;5.85;5.35;;;;;;;;;;4953176;29;20050;-86
2023/05/21 04:06:50;;;;;;;5.72;5.32;;;;;;;;;;4951083;28;20059;-87
2023/05/21 04:09:17;;;;;;;5.90;5.40;;;;;;;;;;4936396;29;20073;-86
2023/05/21 04:11:46;;;;;;;5.95;5.47;;;;;;;;;;4950335;29;22420;-88
2023/05/21 04:14:14;;;;;;;6.60;6.00;;;;;;;;;;4935537;29;20035;-86
2023/05/21 04:16:42;;;;;;;6.15;5.60;;;;;;;;;;4934567;29;21052;-87
2023/05/21 04:19:10;;;;;;;6.90;6.32;;;;;;;;;;4948794;29;20057;-87
2023/05/21 04:21:40;;;;;;;6.20;5.70;;;;;;;;;;4954606;28;20046;-88
2023/05/21 04:24:10;;;;;;;6.85;5.65;;;;;;;;;;4949594;29;20102;-85
2023/05/21 04:26:47;;;;;;;6.18;5.65;;;;;;;;;;4934830;29;20047;-87
2023/05/21 04:29:20;;;;;;;6.18;5.68;;;;;;;;;;4934828;29;20050;-87
2023/05/21 04:31:49;;;;;;;5.82;5.25;;;;;;;;;;4934150;29;21874;-86
2023/05/21 04:34:16;;;;;;;6.50;5.90;;;;;;;;;;4932567;29;20130;-86
2023/05/21 04:36:44;;;;;;;5.97;5.53;;;;;;;;;;4933929;29;20047;-87
2023/05/21 04:39:13;;;;;;;5.57;5.18;;;;;;;;;;4933575;28;20046;-87
2023/05/21 04:41:40;;;;;;;5.97;5.47;;;;;;;;;;4951549;29;20106;-86
2023/05/21 04:44:08;;;;;;;6.25;5.45;;;;;;;;;;4949732;29;20059;-87
2023/05/21 04:46:36;;;;;;;5.97;5.47;;;;;;;;;;4935556;29;20080;-88
2023/05/21 04:49:07;;;;;;;5.90;5.40;;;;;;;;;;4953000;28;20043;-86
2023/05/21 04:51:36;;;;;;;5.80;5.30;;;;;;;;;;4924094;29;20298;-87
2023/05/21 04:54:04;;;;;;;5.97;5.38;;;;;;;;;;4934430;29;20074;-88
2023/05/21 04:56:34;;;;;;;6.38;5.82;;;;;;;;;;4937386;29;20070;-86
2023/05/21 04:59:02;;;;;;;6.03;5.53;;;;;;;;;;4947516;29;20046;-88
2023/05/21 05:01:33;;;;;;;5.30;5.00;;;;;;;;;;4970579;28;20115;-87
2023/05/21 05:04:04;;;;;;;5.65;5.15;;;;;;;;;;4976280;28;20090;-88
2023/05/21 05:06:32;;;;;;;5.05;4.65;;;;;;;;;;4956581;28;20067;-85
2023/05/21 05:09:14;;;;;;;5.40;5.00;;;;;;;;;;4955756;28;20058;-84
2023/05/21 05:11:44;;;;;;;5.65;5.07;;;;;;;;;;4967317;28;20126;-85
2023/05/21 05:14:14;;;;;;;5.30;4.90;;;;;;;;;;4972628;28;20051;-86
2023/05/21 05:16:43;;;;;;;6.45;5.75;;;;;;;;;;4944680;29;20055;-88
2023/05/21 05:19:11;;;;;;;6.10;5.50;;;;;;;;;;4948028;29;20048;-86
2023/05/21 05:21:42;;;;;;;5.65;5.25;;;;;;;;;;4952415;28;20051;-86
2023/05/21 05:24:15;;;;;;;6.25;5.65;;;;;;;;;;4933877;29;20054;-87
2023/05/21 05:26:47;;;;;;;5.38;4.88;;;;;;;;;;4940718;29;20449;-87
2023/05/21 05:29:20;;;;;;;5.72;5.30;;;;;;;;;;4957973;28;20045;-88
2023/05/21 05:31:57;;;;;;;7.05;5.05;;;;;;;;;;4960152;28;20043;-87
2023/05/21 05:34:36;;;;;;;5.38;4.97;;;;;;;;;;4948272;29;20086;-89
2023/05/21 05:37:58;;;;;;;5.40;5.00;;;;;;;;;;4906174;29;20092;-87
2023/05/21 05:41:06;;;;;;;5.20;4.70;;;;;;;;;;4899854;29;20046;-90
2023/05/21 05:44:06;;;;;;;5.65;5.25;;;;;;;;;;4911775;29;20056;-89
2023/05/21 05:47:09;;;;;;;5.20;4.78;;;;;;;;;;4890154;29;20056;-91
2023/05/21 05:49:52;;;;;;;5.55;5.15;;;;;;;;;;4907874;29;20052;-90
2023/05/21 05:52:20;;;;;;;5.63;5.13;;;;;;;;;;4909607;29;20035;-90
2023/05/21 05:55:43;;;;;;;5.95;5.07;;;;;;;;;;4863306;29;20123;-91
2023/05/21 06:01:23;;;;;;;4.60;4.30;;;;;;;;;;4970494;28;20047;-76
2023/05/21 06:03:51;;;;;;;5.15;4.75;;;;;;;;;;4951245;28;20047;-76
2023/05/21 06:06:19;;;;;;;4.85;4.45;;;;;;;;;;4949862;28;20492;-76
2023/05/21 06:08:47;;;;;;;5.05;4.65;;;;;;;;;;4957793;28;20042;-74
2023/05/21 06:11:17;;;;;;;5.20;4.80;;;;;;;;;;4955629;28;20046;-74
2023/05/21 06:13:46;;;;;;;6.35;5.18;;;;;;;;;;4969123;28;20065;-74
2023/05/21 06:16:16;;;;;;;5.30;4.80;;;;;;;;;;4950602;28;20058;-75
2023/05/21 06:18:44;;;;;;;4.60;4.30;;;;;;;;;;4950661;28;20150;-75
2023/05/21 06:21:12;;;;;;;5.18;4.78;;;;;;;;;;4969107;28;20633;-75
2023/05/21 06:23:40;;;;;;;4.90;4.60;;;;;;;;;;4950199;28;20047;-75
2023/05/21 06:26:08;;;;;;;5.18;4.78;;;;;;;;;;4956395;28;20104;-73
2023/05/21 06:28:36;;;;;;;4.60;4.25;;;;;;;;;;4959710;28;20050;-73
2023/05/21 06:31:04;;;;;;;5.50;5.10;;;;;;;;;;4963900;28;20061;-75
2023/05/21 06:33:34;;;;;;;5.50;5.03;;;;;;;;;;4974395;28;20496;-75
2023/05/21 06:36:02;;;;;;;4.65;4.25;;;;;;;;;;4962141;28;20043;-74
2023/05/21 06:38:30;;;;;;;4.78;4.38;;;;;;;;;;4956687;28;20059;-74
2023/05/21 06:40:59;;;;;;;5.10;4.70;;;;;;;;;;4957845;28;21901;-74
2023/05/21 06:43:49;;;;;;;5.13;4.63;;;;;;;;;;4964420;28;20069;-74
2023/05/21 06:46:40;;;;;;;5.47;4.97;;;;;;;;;;4952216;28;20054;-74
2023/05/21 06:49:08;;;;;;;5.72;4.63;;;;;;;;;;4961691;28;20532;-74
2023/05/21 06:51:40;;;;;;;5.07;4.68;;;;;;;;;;4968672;28;21532;-74
2023/05/21 06:54:08;;;;;;;4.60;4.20;;;;;;;;;;4980817;28;20054;-76
2023/05/21 06:56:37;;;;;;;4.70;4.40;;;;;;;;;;4958967;28;20415;-76
2023/05/21 06:59:05;;;;;;;5.10;4.70;;;;;;;;;;4962639;28;20042;-78
2023/05/21 07:01:33;;;;;;;4.82;4.43;;;;;;;;;;4961501;28;20046;-77
2023/05/21 07:04:01;;;;;;;4.72;4.32;;;;;;;;;;4964685;28;20424;-77
2023/05/21 07:06:30;;;;;;;4.80;4.50;;;;;;;;;;4962392;28;20100;-76
2023/05/21 07:08:58;;;;;;;4.60;4.30;;;;;;;;;;4964270;28;20061;-76
2023/05/21 07:11:27;;;;;;;4.82;4.43;;;;;;;;;;4958729;28;20050;-76
2023/05/21 07:13:57;;;;;;;5.20;4.80;;;;;;;;;;4968577;28;20525;-75
2023/05/21 07:16:24;;;;;;;4.93;4.43;;;;;;;;;;4965568;28;20053;-75
2023/05/21 07:18:52;;;;;;;4.72;4.30;;;;;;;;;;4973467;28;20085;-76
2023/05/21 07:21:20;;;;;;;4.60;4.20;;;;;;;;;;4972519;28;20043;-76
2023/05/21 07:23:48;;;;;;;5.30;4.80;;;;;;;;;;4976440;28;20046;-75
2023/05/21 07:26:16;;;;;;;5.22;4.82;;;;;;;;;;4976836;28;20054;-76
2023/05/21 07:28:44;;;;;;;4.55;4.25;;;;;;;;;;4968447;28;20049;-75
2023/05/21 07:31:12;;;;;;;4.20;3.90;;;;;;;;;;4976843;28;20631;-75
2023/05/21 07:33:45;;;;;;;5.15;4.75;;;;;;;;;;4968428;28;20046;-75
2023/05/21 07:36:13;;;;;;;5.00;4.60;;;;;;;;;;4969181;28;20476;-75
2023/05/21 07:38:41;;;;;;;4.28;3.90;;;;;;;;;;4985869;28;20078;-75
2023/05/21 07:41:13;;;;;;;4.40;4.10;;;;;;;;;;4953158;28;20077;-75
2023/05/21 07:43:55;;;;;;;4.57;4.00;;;;;;;;;;4999849;28;20058;-75
2023/05/21 07:46:34;;;;;;;3.72;3.53;;;;;;;;;;4981370;28;20073;-75
2023/05/21 07:49:02;;;;;;;3.45;3.25;;;;;;;;;;4985338;28;20117;-75
2023/05/21 07:51:31;;;;;;;3.70;3.50;;;;;;;;;;4985543;28;20054;-75
2023/05/21 07:53:58;;;;;;;3.70;3.50;;;;;;;;;;4985538;28;20556;-76
2023/05/21 07:56:31;;;;;;;4.80;4.40;;;;;;;;;;4984696;28;20376;-76
2023/05/21 07:59:00;;;;;;;4.30;4.00;;;;;;;;;;4984519;28;20046;-76
2023/05/21 08:01:28;;;;;;;4.40;4.10;;;;;;;;;;4984181;28;20069;-76
2023/05/21 08:03:59;;;;;;;4.45;4.15;;;;;;;;;;4983512;28;20078;-76
2023/05/21 08:06:27;;;;;;;4.55;4.25;;;;;;;;;;4985514;28;20149;-76
2023/05/21 08:08:54;;;;;;;4.65;3.97;;;;;;;;;;4993524;28;20047;-76
2023/05/21 08:11:23;;;;;;;4.30;3.90;;;;;;;;;;4978894;28;20042;-75
2023/05/21 08:13:50;;;;;;;3.92;3.67;;;;;;;;;;4984839;28;20050;-76
2023/05/21 08:16:18;;;;;;;4.60;4.20;;;;;;;;;;4986031;28;20061;-77
2023/05/21 08:18:46;;;;;;;4.50;4.10;;;;;;;;;;4984489;28;20054;-75
2023/05/21 08:21:14;;;;;;;4.00;3.70;;;;;;;;;;4984150;28;20050;-77
2023/05/21 08:23:41;;;;;;;4.93;4.40;;;;;;;;;;4985294;28;20577;-76
2023/05/21 08:26:09;;;;;;;5.95;4.25;;;;;;;;;;4981580;28;20462;-76
2023/05/21 08:28:38;;;;;;;3.70;3.33;;;;;;;;;;4973563;28;20058;-76
2023/05/21 08:31:06;;;;;;;4.50;4.20;;;;;;;;;;4984858;28;20282;-77
2023/05/21 08:33:38;;;;;;;4.63;4.22;;;;;;;;;;4976076;28;20085;-75
2023/05/21 08:36:06;;;;;;;5.37;4.60;;;;;;;;;;5001204;28;20046;-76
2023/05/21 08:38:47;;;;;;;4.40;4.00;;;;;;;;;;4963279;28;20054;-77
2023/05/21 08:41:22;;;;;;;4.25;3.85;;;;;;;;;;5021090;23;20142;-78
2023/05/21 08:43:56;;;;;;;4.70;4.30;;;;;;;;;;4994568;28;20402;-75
2023/05/21 08:46:30;;;;;;;6.70;4.50;;;;;;;;;;4998079;28;20474;-77
2023/05/21 08:49:10;;;;;;;4.72;4.13;;;;;;;;;;4988791;28;20050;-77
2023/05/21 08:51:38;;;;;;;3.97;3.67;;;;;;;;;;4979544;28;20053;-76
2023/05/21 08:54:07;;;;;;;3.70;3.40;;;;;;;;;;4987279;28;20049;-76
2023/05/21 08:56:34;;;;;;;3.83;3.53;;;;;;;;;;4984251;28;20069;-78
2023/05/21 08:59:02;;;;;;;4.20;3.90;;;;;;;;;;5000670;28;20124;-76
2023/05/21 09:01:37;;;;;;;4.35;4.05;;;;;;;;;;4998138;28;20045;-76
2023/05/21 09:04:31;;;;;;;4.78;4.40;;;;;;;;;;5010709;28;20132;-75
2023/05/21 09:07:01;;;;;;;4.28;3.97;;;;;;;;;;4988043;28;20129;-75
2023/05/21 09:09:55;;;;;;;4.32;3.85;;;;;;;;;;4997399;28;20160;-76
2023/05/21 09:12:27;;;;;;;4.72;4.43;;;;;;;;;;4987131;28;20523;-75
2023/05/21 09:14:57;;;;;;;3.88;3.67;;;;;;;;;;4999165;28;20041;-77
2023/05/21 09:17:29;;;;;;;4.40;4.10;;;;;;;;;;4984134;28;20267;-76
2023/05/21 09:20:09;;;;;;;5.05;4.53;;;;;;;;;;5000489;28;20068;-76
2023/05/21 09:22:39;;;;;;;4.80;4.40;;;;;;;;;;4983226;28;20105;-77
2023/05/21 09:25:07;;;;;;;4.63;4.28;;;;;;;;;;5002250;28;20054;-76
2023/05/21 09:27:35;;;;;;;4.32;4.00;;;;;;;;;;5004426;28;20351;-77
2023/05/21 09:30:03;;;;;;;5.25;4.18;;;;;;;;;;5009688;28;20041;-77
2023/05/21 09:32:32;;;;;;;5.75;4.32;;;;;;;;;;4988048;28;20049;-78
2023/05/21 09:35:07;;;;;;;6.00;4.30;;;;;;;;;;4995093;28;20179;-80
2023/05/21 09:37:42;;;;;;;4.00;3.70;;;;;;;;;;5013125;28;20068;-77
2023/05/21 09:40:11;;;;;;;4.35;3.90;;;;;;;;;;4998622;28;20050;-77
2023/05/21 09:42:39;;;;;;;4.72;4.40;;;;;;;;;;4989252;28;20042;-76
2023/05/21 09:45:08;;;;;;;4.45;4.05;;;;;;;;;;4988687;28;20144;-78
2023/05/21 09:47:42;;;;;;;4.03;3.80;;;;;;;;;;4996742;28;20074;-77
2023/05/21 09:50:10;;;;;;;4.40;4.10;;;;;;;;;;5007364;28;20064;-77
2023/05/21 09:52:39;;;;;;;3.97;3.67;;;;;;;;;;5001880;28;20466;-76
2023/05/21 09:55:12;;;;;;;3.65;3.45;;;;;;;;;;5023298;28;20408;-76
2023/05/21 09:57:41;;;;;;;4.55;4.15;;;;;;;;;;4999472;28;20049;-75
2023/05/21 10:00:11;;;;;;;5.40;3.58;;;;;;;;;;5010678;28;20165;-76
2023/05/21 10:02:42;;;;;;;3.30;3.10;;;;;;;;;;5015218;28;20099;-76
2023/05/21 10:05:11;;;;;;;4.10;3.80;;;;;;;;;;4997417;28;20050;-76
2023/05/21 10:07:40;;;;;;;3.53;3.22;;;;;;;;;;5022897;28;20080;-76
2023/05/21 10:10:10;;;;;;;3.47;3.22;;;;;;;;;;5014243;28;20467;-77
2023/05/21 10:12:40;;;;;;;4.65;4.15;;;;;;;;;;5027142;28;20056;-77
2023/05/21 10:15:08;;;;;;;3.60;3.40;;;;;;;;;;5011442;28;20050;-76
2023/05/21 10:17:37;;;;;;;4.13;3.72;;;;;;;;;;5009342;28;20125;-76
2023/05/21 10:20:06;;;;;;;3.45;3.25;;;;;;;;;;5012198;28;20038;-76
2023/05/21 10:22:34;;;;;;;3.75;3.25;;;;;;;;;;5009419;28;20575;-76
2023/05/21 10:25:02;;;;;;;3.33;3.15;;;;;;;;;;4992847;28;20508;-76
2023/05/21 10:27:31;;;;;;;3.80;3.50;;;;;;;;;;5014845;28;20167;-76
2023/05/21 10:29:59;;;;;;;3.58;3.30;;;;;;;;;;5002375;28;20042;-76
2023/05/21 10:32:27;;;;;;;4.20;3.80;;;;;;;;;;5008734;28;20289;-75
2023/05/21 10:34:56;;;;;;;4.97;4.50;;;;;;;;;;5019049;28;20100;-76
2023/05/21 10:37:27;;;;;;;3.80;3.50;;;;;;;;;;5008282;28;20047;-76
2023/05/21 10:39:55;;;;;;;3.75;3.45;;;;;;;;;;4997932;28;20511;-76
2023/05/21 10:42:23;;;;;;;3.78;3.47;;;;;;;;;;5006345;28;20081;-77
2023/05/21 10:44:56;;;;;;;3.80;3.50;;;;;;;;;;5004399;28;20055;-77
2023/05/21 10:47:33;;;;;;;3.25;3.05;;;;;;;;;;5013324;28;20454;-75
2023/05/21 10:50:26;;;;;;;3.65;3.35;;;;;;;;;;5025474;28;20418;-76
2023/05/21 10:53:06;;;;;;;3.90;3.60;;;;;;;;;;5002403;28;20070;-75
2023/05/21 10:56:03;;;;;;;3.17;2.92;;;;;;;;;;5004370;28;20056;-76
2023/05/21 10:58:49;;;;;;;3.53;3.30;;;;;;;;;;5020921;28;20573;-76
2023/05/21 11:01:18;;;;;;;4.22;3.28;;;;;;;;;;5018625;28;20050;-77
2023/05/21 11:03:47;;;;;;;3.28;3.03;;;;;;;;;;5021262;28;20080;-76
2023/05/21 11:06:27;;;;;;;4.32;4.03;;;;;;;;;;5013269;28;20054;-76
2023/05/21 11:08:55;;;;;;;3.85;3.65;;;;;;;;;;5001677;28;20057;-76
2023/05/21 11:11:42;;;;;;;3.13;3.00;;;;;;;;;;5008632;28;20077;-76
2023/05/21 11:14:25;;;;;;;4.00;3.70;;;;;;;;;;5004677;28;20802;-75
2023/05/21 11:16:54;;;;;;;3.63;3.42;;;;;;;;;;5015536;28;20099;-75
2023/05/21 11:19:22;;;;;;;3.60;3.30;;;;;;;;;;5004754;28;20050;-75
2023/05/21 11:21:50;;;;;;;3.30;3.10;;;;;;;;;;5007264;28;20049;-76
2023/05/21 11:24:19;;;;;;;3.13;2.92;;;;;;;;;;5008415;28;20045;-76
2023/05/21 11:26:47;;;;;;;4.45;3.72;;;;;;;;;;5006105;28;20223;-76
2023/05/21 11:29:21;;;;;;;3.47;3.28;;;;;;;;;;5000978;28;20054;-77
2023/05/21 11:32:00;;;;;;;3.47;3.17;;;;;;;;;;5001290;28;20065;-77
2023/05/21 11:34:36;;;;;;;3.45;3.15;;;;;;;;;;5008787;28;20070;-76
2023/05/21 11:37:16;;;;;;;3.38;3.17;;;;;;;;;;5011602;28;20165;-76
2023/05/21 11:39:44;;;;;;;3.10;2.90;;;;;;;;;;4994835;28;20042;-76
2023/05/21 11:42:12;;;;;;;4.18;2.80;;;;;;;;;;5014638;28;20053;-77
2023/05/21 11:44:39;;;;;;;3.30;3.08;;;;;;;;;;5002907;28;20059;-77
2023/05/21 11:47:11;;;;;;;3.30;3.05;;;;;;;;;;5015478;28;20042;-76
2023/05/21 11:49:41;;;;;;;3.55;3.17;;;;;;;;;;5008747;28;20042;-77
2023/05/21 11:52:10;;;;;;;2.90;2.70;;;;;;;;;;5008235;28;20045;-76
2023/05/21 11:54:39;;;;;;;3.10;2.90;;;;;;;;;;5017081;28;20037;-76
2023/05/21 11:57:09;;;;;;;2.90;2.70;;;;;;;;;;5013849;28;20057;-77
2023/05/21 11:59:38;;;;;;;3.13;2.92;;;;;;;;;;5006171;28;20518;-77
2023/05/21 12:02:06;;;;;;;2.90;2.67;;;;;;;;;;5000632;28;20058;-77
2023/05/21 12:04:36;;;;;;;3.20;3.00;;;;;;;;;;4998342;28;20041;-76
2023/05/21 12:07:07;;;;;;;9.73;6.78;;;;;;;;;;4998941;28;20073;-76
2023/05/21 12:09:41;;;;;;;3.10;2.90;;;;;;;;;;4997992;28;20615;-77
2023/05/21 12:12:10;;;;;;;17.83;10.75;;;;;;;;;;4993850;28;20058;-76
2023/05/21 12:14:43;;;;;;;3.47;3.17;;;;;;;;;;4993732;28;20096;-77
2023/05/21 12:17:12;;;;;;;3.20;3.00;;;;;;;;;;4994201;28;20046;-77
2023/05/21 12:19:40;;;;;;;2.80;2.60;;;;;;;;;;4998089;28;20049;-77
2023/05/21 12:22:08;;;;;;;2.40;2.30;;;;;;;;;;4984466;28;20526;-77
2023/05/21 12:24:37;;;;;;;2.53;2.42;;;;;;;;;;4997412;28;20045;-76
2023/05/21 12:27:09;;;;;;;2.85;2.75;;;;;;;;;;4996404;28;20050;-77
2023/05/21 12:29:37;;;;;;;2.40;2.30;;;;;;;;;;4986752;28;20050;-77
2023/05/21 12:32:07;;;;;;;2.80;2.60;;;;;;;;;;4991971;28;20050;-76
2023/05/21 12:34:38;;;;;;;4.05;3.75;;;;;;;;;;4995542;28;20058;-77
2023/05/21 12:37:07;;;;;;;6.90;3.47;;;;;;;;;;4993512;28;20109;-77
2023/05/21 12:39:38;;;;;;;3.53;2.97;;;;;;;;;;4991610;28;20046;-77
2023/05/21 12:42:06;;;;;;;2.78;2.65;;;;;;;;;;4993871;28;20500;-78
2023/05/21 12:44:34;;;;;;;2.80;2.70;;;;;;;;;;4991484;28;20054;-77
2023/05/21 12:47:03;;;;;;;3.78;3.47;;;;;;;;;;4993533;28;20044;-76
2023/05/21 12:49:41;;;;;;;2.50;2.40;;;;;;;;;;5002781;28;20081;-77
2023/05/21 12:52:09;;;;;;;3.78;3.47;;;;;;;;;;4990751;28;20104;-77
2023/05/21 12:54:38;;;;;;;2.78;2.67;;;;;;;;;;4998564;28;20515;-76
2023/05/21 12:57:10;;;;;;;2.97;2.78;;;;;;;;;;4991974;28;20559;-77
2023/05/21 12:59:55;;;;;;;2.47;2.38;;;;;;;;;;4996026;28;20038;-76
2023/05/21 13:02:24;;;;;;;2.50;2.40;;;;;;;;;;4991479;28;20069;-76
2023/05/21 13:04:56;;;;;;;2.85;2.63;;;;;;;;;;4989847;28;20101;-76
2023/05/21 13:07:25;;;;;;;3.55;3.33;;;;;;;;;;4983955;28;20051;-76
2023/05/21 13:09:52;;;;;;;3.10;2.90;;;;;;;;;;4996428;28;20085;-76
2023/05/21 13:12:21;;;;;;;3.05;2.88;;;;;;;;;;4999176;28;20057;-76
2023/05/21 13:14:52;;;;;;;3.25;3.05;;;;;;;;;;5004288;28;20132;-77
2023/05/21 13:17:20;;;;;;;2.80;2.60;;;;;;;;;;5015033;28;20089;-76
2023/05/21 13:20:13;;;;;;;2.90;2.70;;;;;;;;;;5005026;28;20042;-77
2023/05/21 13:22:42;;;;;;;3.28;3.08;;;;;;;;;;4999106;28;20073;-77
2023/05/21 13:25:19;;;;;;;3.08;2.88;;;;;;;;;;4994617;28;20104;-78
2023/05/21 13:27:48;;;;;;;2.80;2.60;;;;;;;;;;4994205;28;20455;-78
2023/05/21 13:30:16;;;;;;;2.70;2.60;;;;;;;;;;4995139;28;20077;-78
2023/05/21 13:32:44;;;;;;;3.63;2.60;;;;;;;;;;4994368;28;20150;-77
2023/05/21 13:35:12;;;;;;;3.30;3.00;;;;;;;;;;4996622;28;20080;-76
2023/05/21 13:37:40;;;;;;;3.03;2.83;;;;;;;;;;4997791;28;20057;-77
2023/05/21 13:40:15;;;;;;;3.05;2.88;;;;;;;;;;4998392;28;20135;-78
2023/05/21 13:42:47;;;;;;;2.33;2.20;;;;;;;;;;4991821;28;20413;-77
2023/05/21 13:45:16;;;;;;;3.15;2.95;;;;;;;;;;4998026;28;20046;-77
2023/05/21 13:47:44;;;;;;;3.15;2.85;;;;;;;;;;5002113;28;20096;-76
2023/05/21 13:50:12;;;;;;;2.88;2.67;;;;;;;;;;4996990;28;20060;-76
2023/05/21 13:52:40;;;;;;;3.10;2.90;;;;;;;;;;4989391;28;20126;-76
2023/05/21 13:55:09;;;;;;;2.92;2.72;;;;;;;;;;4992784;28;20034;-76
2023/05/21 13:57:37;;;;;;;3.63;2.63;;;;;;;;;;4989956;28;20050;-77
2023/05/21 14:00:05;;;;;;;2.53;2.42;;;;;;;;;;4991686;28;20625;-77
2023/05/21 14:02:34;;;;;;;2.70;2.60;;;;;;;;;;4991427;28;20050;-77
2023/05/21 14:05:02;;;;;;;2.88;2.67;;;;;;;;;;4991751;28;20083;-77
2023/05/21 14:07:30;;;;;;;2.70;2.60;;;;;;;;;;4991201;28;20076;-77
2023/05/21 14:09:57;;;;;;;2.80;2.60;;;;;;;;;;4998258;28;20046;-76
2023/05/21 14:12:25;;;;;;;2.42;2.33;;;;;;;;;;4998779;28;20077;-77
2023/05/21 14:14:53;;;;;;;2.30;2.10;;;;;;;;;;5001147;28;20065;-76
2023/05/21 14:17:20;;;;;;;2.25;2.15;;;;;;;;;;5000464;28;20042;-77
2023/05/21 14:19:48;;;;;;;2.80;2.60;;;;;;;;;;4994584;28;20034;-77
2023/05/21 14:22:16;;;;;;;2.75;2.65;;;;;;;;;;4992609;28;20042;-77
2023/05/21 14:24:43;;;;;;;2.67;2.47;;;;;;;;;;4986381;28;20060;-76
2023/05/21 14:27:11;;;;;;;2.70;2.60;;;;;;;;;;4994295;28;20053;-77
2023/05/21 14:29:41;;;;;;;2.85;2.65;;;;;;;;;;4978016;28;20053;-76
2023/05/21 14:32:09;;;;;;;2.30;2.20;;;;;;;;;;4991976;28;20080;-79
2023/05/21 14:34:37;;;;;;;2.80;2.60;;;;;;;;;;4990946;28;20526;-76
2023/05/21 14:37:06;;;;;;;2.40;2.30;;;;;;;;;;4996118;28;20543;-77
2023/05/21 14:39:34;;;;;;;2.50;2.40;;;;;;;;;;4974323;28;20054;-77
2023/05/21 14:42:05;;;;;;;2.22;2.13;;;;;;;;;;4992432;28;20058;-77
2023/05/21 14:44:32;;;;;;;2.63;2.50;;;;;;;;;;4998369;28;20153;-76
2023/05/21 14:47:00;;;;;;;2.53;2.42;;;;;;;;;;4999527;28;20053;-77
2023/05/21 14:49:27;;;;;;;2.65;2.45;;;;;;;;;;5001822;28;20113;-77
2023/05/21 14:51:55;;;;;;;2.70;2.53;;;;;;;;;;5000379;28;20512;-77
2023/05/21 14:54:23;;;;;;;3.00;2.80;;;;;;;;;;4997622;28;20042;-77
2023/05/21 14:56:51;;;;;;;2.80;2.70;;;;;;;;;;4995704;28;20543;-78
2023/05/21 14:59:18;;;;;;;3.35;2.78;;;;;;;;;;4996011;28;20500;-77
2023/05/21 15:01:46;;;;;;;3.45;3.25;;;;;;;;;;5001493;28;20504;-77
2023/05/21 15:04:14;;;;;;;2.63;2.53;;;;;;;;;;5070673;23;20058;-76
2023/05/21 15:06:44;;;;;;;4.03;3.70;;;;;;;;;;5001651;28;20054;-76